Marseillais 6 — FQSJ — position and weather

sailwx.info

Track history (hours):
 
Tides and Currents Weather Stations Pressure Air Temp Water Temp Dewpoint Dewpoint Depression Visibility Wind Speed Wind Dir Waves Ship Positions

Marseillais 6

Last reported at 2015-Jul-01 22:34 UTC. Time now 2015-Jul-01 23:10 UTC.
Position N 43°26' E 004°54'.

Length 35 m; draft 5 m.

Type: Tug. MMSI: 227016900.

Date/timePositionNaut miles runAvg speedWind from/ knotsBaromVisibWave heightAir tempDewpointWater temp
2015-Jul-01 22:34N 43°26' E 004°54'0 0.0
2015-Jul-01 21:33N 43°26' E 004°54'1 1.2
2015-Jul-01 20:33N 43°25' E 004°53'0 0.4
2015-Jul-01 19:33N 43°24' E 004°53'0 0.4
2015-Jul-01 18:33N 43°25' E 004°53'1 1.2
2015-Jul-01 17:34N 43°26' E 004°54'0 0.0
2015-Jul-01 16:34N 43°26' E 004°54'0 0.0
2015-Jul-01 15:33N 43°26' E 004°54'0 0.0
2015-Jul-01 14:33N 43°26' E 004°54'0 0.0
2015-Jul-01 13:33N 43°26' E 004°54'0 0.0
2015-Jul-01 12:34N 43°26' E 004°54'0 0.0
2015-Jul-01 11:33N 43°26' E 004°54'0 0.4
2015-Jul-01 10:33N 43°26' E 004°54'2 1.9
2015-Jul-01 09:33N 43°25' E 004°51'2 2.3
2015-Jul-01 08:34N 43°26' E 004°54'0 0.0
2015-Jul-01 07:34N 43°26' E 004°54'1 0.8
2015-Jul-01 06:34N 43°25' E 004°54'1 1.1
2015-Jul-01 05:33N 43°24' E 004°55'3 2.9
2015-Jul-01 04:33N 43°24' E 004°59'0 0.0
2015-Jul-01 03:33N 43°24' E 004°59'0 0.0
2015-Jul-01 02:33N 43°24' E 004°59'0 0.0
2015-Jul-01 01:34N 43°24' E 004°59'0 0.0
2015-Jul-01 00:33N 43°24' E 004°59'0 0.0
2015-Jun-30 23:33N 43°24' E 004°59'0 0.0
2015-Jun-30 22:34N 43°24' E 004°59'0 0.5
2015-Jun-30 21:34N 43°23' E 004°59'6 6.2
2015-Jun-30 20:33N 43°25' E 004°50'6 6.4
2015-Jun-30 19:34N 43°24' E 004°59'0 0.0
2015-Jun-30 18:33N 43°24' E 004°59'0 0.0
2015-Jun-30 17:34N 43°24' E 004°59'0 0.0
2015-Jun-30 16:34N 43°24' E 004°59'0 0.0
2015-Jun-30 15:34N 43°24' E 004°59'0 0.0
2015-Jun-30 14:34N 43°24' E 004°59'0 0.0
2015-Jun-30 13:34N 43°24' E 004°59'0 0.5
2015-Jun-30 12:33N 43°24' E 004°60'5 4.6
2015-Jun-30 11:33N 43°24' E 004°53'3 2.5
2015-Jun-30 10:33N 43°24' E 004°57'2 1.7
2015-Jun-30 09:33N 43°24' E 004°59'0 0.0
2015-Jun-30 08:33N 43°24' E 004°59'0 0.0
2015-Jun-30 07:33N 43°24' E 004°59'0 0.0
2015-Jun-30 06:33N 43°24' E 004°59'0 0.0
2015-Jun-30 05:33N 43°24' E 004°59'0 0.0
2015-Jun-30 04:33N 43°24' E 004°59'0 0.0
2015-Jun-30 03:33N 43°24' E 004°59'0 0.0
2015-Jun-30 02:33N 43°24' E 004°59'0 0.0
2015-Jun-30 01:33N 43°24' E 004°59'0 0.0
2015-Jun-30 00:33N 43°24' E 004°59'0 0.0
2015-Jun-29 23:33N 43°24' E 004°59'0 0.0
2015-Jun-29 22:33N 43°24' E 004°59'0 0.0
2015-Jun-29 21:33N 43°24' E 004°59'5 4.8
2015-Jun-29 20:33N 43°25' E 004°53'1 1.1
2015-Jun-29 19:33N 43°24' E 004°54'4 4.0
2015-Jun-29 18:34N 43°24' E 004°59'5 4.8
2015-Jun-29 17:33N 43°25' E 004°53'5 4.8
2015-Jun-29 16:33N 43°24' E 004°59'0 0.0
2015-Jun-29 15:33N 43°24' E 004°59'0 0.0
2015-Jun-29 14:33N 43°24' E 004°59'0 0.0
2015-Jun-29 13:33N 43°24' E 004°59'0 0.0
2015-Jun-29 12:33N 43°24' E 004°59'1 1.1
2015-Jun-29 11:33N 43°24' E 005°01'1 1.1
2015-Jun-29 10:33N 43°24' E 004°59'0 0.0
2015-Jun-29 09:33N 43°24' E 004°59'0 0.0
2015-Jun-29 08:33N 43°24' E 004°59'0 0.0
2015-Jun-29 07:33N 43°24' E 004°59'0 0.0
2015-Jun-29 06:33N 43°24' E 004°59'0 0.0
2015-Jun-29 05:33N 43°24' E 004°59'0 0.0
2015-Jun-29 04:34N 43°24' E 004°59'4 4.0
2015-Jun-29 03:34N 43°25' E 004°54'2 1.5
2015-Jun-29 02:33N 43°24' E 004°55'3 2.7
2015-Jun-29 01:33N 43°24' E 004°59'0 0.0
2015-Jun-29 00:34N 43°24' E 004°59'0 0.0
2015-Jun-28 23:33N 43°24' E 004°59'0 0.0
2015-Jun-28 22:33N 43°24' E 004°59'0 0.0
2015-Jun-28 21:34N 43°24' E 004°59'0 0.0
2015-Jun-28 20:33N 43°24' E 004°59'0 0.0
2015-Jun-28 19:33N 43°24' E 004°59'0 0.0
2015-Jun-28 18:33N 43°24' E 004°59'0 0.0
2015-Jun-28 17:33N 43°24' E 004°59'5 5.2
2015-Jun-28 16:33N 43°24' E 004°52'5 4.5
2015-Jun-28 15:33N 43°23' E 004°58'1 0.8
2015-Jun-28 14:33N 43°24' E 004°59'0 0.0
2015-Jun-28 13:33N 43°24' E 004°59'0 0.0
2015-Jun-28 12:33N 43°24' E 004°59'0 0.0
2015-Jun-28 11:33N 43°24' E 004°59'0 0.0
2015-Jun-28 10:33N 43°24' E 004°59'0 0.0
2015-Jun-28 09:33N 43°24' E 004°59'0 0.0
2015-Jun-28 08:33N 43°24' E 004°59'0 0.0
2015-Jun-28 07:33N 43°24' E 004°59'0 0.0
2015-Jun-28 06:33N 43°24' E 004°59'0 0.0
2015-Jun-28 05:33N 43°24' E 004°59'4 3.8
2015-Jun-28 04:33N 43°24' E 004°54'2 1.6
2015-Jun-28 03:33N 43°24' E 004°52'5 5.3
2015-Jun-28 02:34N 43°24' E 004°59'0 0.0
2015-Jun-28 01:33N 43°24' E 004°59'0 0.0
2015-Jun-28 00:33N 43°24' E 004°59'0 0.0
2015-Jun-27 23:33N 43°24' E 004°59'0 0.0
2015-Jun-27 22:33N 43°24' E 004°59'0 0.0
2015-Jun-27 21:33N 43°24' E 004°59'0 0.0
2015-Jun-27 20:33N 43°24' E 004°59'0 0.0
2015-Jun-27 19:33N 43°24' E 004°59'0 0.0
2015-Jun-27 18:34N 43°24' E 004°59'0 0.0
2015-Jun-27 17:33N 43°24' E 004°59'0 0.0
2015-Jun-27 16:33N 43°24' E 004°59'0 0.0
2015-Jun-27 15:34N 43°24' E 004°59'0 0.0
2015-Jun-27 14:34N 43°24' E 004°59'0 0.0
2015-Jun-27 13:33N 43°24' E 004°59'0 0.0
2015-Jun-27 12:34N 43°24' E 004°59'0 0.0
2015-Jun-27 11:33N 43°24' E 004°59'4 4.4
2015-Jun-27 10:33N 43°25' E 004°53'1 0.5
2015-Jun-27 09:33N 43°25' E 004°53'5 4.8
2015-Jun-27 08:33N 43°24' E 004°59'0 0.0
2015-Jun-27 07:33N 43°24' E 004°59'0 0.0
2015-Jun-27 06:33N 43°24' E 004°59'4 4.1
2015-Jun-27 05:33N 43°26' E 004°54'0 0.0
2015-Jun-27 04:33N 43°26' E 004°54'0 0.0
2015-Jun-27 03:33N 43°26' E 004°54'0 0.0
2015-Jun-27 02:33N 43°26' E 004°54'0 0.0
2015-Jun-27 01:33N 43°26' E 004°54'0 0.0
2015-Jun-27 00:34N 43°26' E 004°54'2 1.9
2015-Jun-26 23:33N 43°26' E 004°52'2 1.7
2015-Jun-26 22:33N 43°25' E 004°53'1 0.7
2015-Jun-26 21:33N 43°26' E 004°54'0 0.0
2015-Jun-26 20:33N 43°26' E 004°54'0 0.0
2015-Jun-26 19:33N 43°26' E 004°54'0 0.0
2015-Jun-26 18:33N 43°26' E 004°54'0 0.0
2015-Jun-26 17:33N 43°26' E 004°54'0 0.0
2015-Jun-26 16:33N 43°26' E 004°54'0 0.0
2015-Jun-26 15:33N 43°26' E 004°54'0 0.0
2015-Jun-26 14:33N 43°26' E 004°54'0 0.0
2015-Jun-26 13:33N 43°26' E 004°54'0 0.0
2015-Jun-26 12:33N 43°26' E 004°54'0 0.1
2015-Jun-26 11:33N 43°26' E 004°54'0 0.1
2015-Jun-26 10:33N 43°26' E 004°54'0 0.0
2015-Jun-26 09:33N 43°26' E 004°54'0 0.0
2015-Jun-26 08:33N 43°26' E 004°54'0 0.0
2015-Jun-26 07:33N 43°26' E 004°54'0 0.0
2015-Jun-26 06:33N 43°26' E 004°54'0 0.0
2015-Jun-26 05:33N 43°26' E 004°54'0 0.0
2015-Jun-26 04:33N 43°26' E 004°54'0 0.0
2015-Jun-26 03:33N 43°26' E 004°54'0 0.0
2015-Jun-26 02:33N 43°26' E 004°54'0 0.0
2015-Jun-26 01:33N 43°26' E 004°54'0 0.0
2015-Jun-26 00:33N 43°26' E 004°54'0 0.0
2015-Jun-25 23:33N 43°26' E 004°54'0 0.0
2015-Jun-25 22:34N 43°26' E 004°54'2 2.2
2015-Jun-25 21:33N 43°27' E 004°51'2 2.5
2015-Jun-25 20:33N 43°25' E 004°53'1 1.1
2015-Jun-25 19:33N 43°26' E 004°54'0 0.0
2015-Jun-25 18:33N 43°26' E 004°54'0 0.0
2015-Jun-25 17:33N 43°26' E 004°54'0 0.0
2015-Jun-25 16:33N 43°26' E 004°54'0 0.0
2015-Jun-25 15:33N 43°26' E 004°54'0 0.0
2015-Jun-25 14:34N 43°26' E 004°54'0 0.0
2015-Jun-25 13:33N 43°26' E 004°54'0 0.0
2015-Jun-25 12:33N 43°26' E 004°54'0 0.0
2015-Jun-25 11:33N 43°26' E 004°54'0 0.0
2015-Jun-25 10:33N 43°26' E 004°54'2 1.7
2015-Jun-25 09:34N 43°24' E 004°53'1 0.7
2015-Jun-25 08:34N 43°25' E 004°53'1 1.1
2015-Jun-25 07:33N 43°26' E 004°54'0 0.0
2015-Jun-25 06:33N 43°26' E 004°54'0 0.0
2015-Jun-25 05:33N 43°26' E 004°54'0 0.0
2015-Jun-25 04:33N 43°26' E 004°54'0 0.0
2015-Jun-25 03:33N 43°26' E 004°54'0 0.0
2015-Jun-25 02:33N 43°26' E 004°54'0 0.0
2015-Jun-25 01:33N 43°26' E 004°54'1 1.2
2015-Jun-25 00:33N 43°24' E 004°54'1 1.2
2015-Jun-24 23:33N 43°26' E 004°54'0 0.0
2015-Jun-24 22:33N 43°26' E 004°54'0 0.0
2015-Jun-24 21:33N 43°26' E 004°54'1 0.9
2015-Jun-24 20:33N 43°25' E 004°53'1 0.9
2015-Jun-24 19:33N 43°26' E 004°54'0 0.0
2015-Jun-24 18:33N 43°26' E 004°54'0 0.0
2015-Jun-24 17:33N 43°26' E 004°54'0 0.0
2015-Jun-24 16:33N 43°26' E 004°54'3 2.8
2015-Jun-24 15:33N 43°25' E 004°50'3 2.8
2015-Jun-24 14:33N 43°26' E 004°54'2 2.5
2015-Jun-24 13:33N 43°24' E 004°51'1 1.3
2015-Jun-24 12:33N 43°24' E 004°53'1 1.3
2015-Jun-24 11:33N 43°26' E 004°54'1 0.9
2015-Jun-24 10:33N 43°25' E 004°54'1 0.9
2015-Jun-24 09:33N 43°26' E 004°54'0 0.0
2015-Jun-24 08:33N 43°26' E 004°54'0 0.0
2015-Jun-24 07:34N 43°26' E 004°54'0 0.0
2015-Jun-24 06:33N 43°26' E 004°54'0 0.0
2015-Jun-24 05:34N 43°26' E 004°54'0 0.0
2015-Jun-24 04:34N 43°26' E 004°54'3 2.8
2015-Jun-24 03:34N 43°25' E 004°50'2 2.3
2015-Jun-24 02:34N 43°25' E 004°53'1 0.5
2015-Jun-24 01:34N 43°26' E 004°54'0 0.0
2015-Jun-24 00:34N 43°26' E 004°54'0 0.0
2015-Jun-23 23:34N 43°26' E 004°54'0 0.0
2015-Jun-23 22:33N 43°26' E 004°54'0 0.0
2015-Jun-23 21:34N 43°26' E 004°54'0 0.0
2015-Jun-23 20:33N 43°26' E 004°54'0 0.0
2015-Jun-23 19:34N 43°26' E 004°54'0 0.0
2015-Jun-23 19:06N 43°26' E 004°54'0 0.0
2015-Jun-22 19:34N 43°26' E 004°54'0 0.0
2015-Jun-22 18:33N 43°26' E 004°54'0 0.0
2015-Jun-22 17:34N 43°26' E 004°54'0 0.0
2015-Jun-22 16:34N 43°26' E 004°54'3 3.2
2015-Jun-22 15:34N 43°24' E 004°57'2 1.9
2015-Jun-22 14:33N 43°24' E 004°60'3 2.9
2015-Jun-22 13:34N 43°24' E 004°56'2 2.3
2015-Jun-22 12:34N 43°26' E 004°54'0 0.0
2015-Jun-22 11:34N 43°26' E 004°54'0 0.0
2015-Jun-22 10:33N 43°26' E 004°54'0 0.0
2015-Jun-22 09:33N 43°26' E 004°54'0 0.0
2015-Jun-22 08:33N 43°26' E 004°54'0 0.0
2015-Jun-22 07:34N 43°26' E 004°54'1 1.5
2015-Jun-22 06:34N 43°24' E 004°53'1 0.6
2015-Jun-22 05:34N 43°25' E 004°53'0 0.5
2015-Jun-22 04:34N 43°24' E 004°53'1 1.3
2015-Jun-22 03:34N 43°26' E 004°54'0 0.0
2015-Jun-22 02:34N 43°26' E 004°54'0 0.0
2015-Jun-22 01:34N 43°26' E 004°54'1 1.2
2015-Jun-22 00:33N 43°25' E 004°53'0 0.1
2015-Jun-21 23:34N 43°25' E 004°53'  
Track history (hours):
 
Tides and Currents Weather Stations Pressure Air Temp Water Temp Dewpoint Dewpoint Depression Visibility Wind Speed Wind Dir Waves Ship Positions

Marseillais 6

Last reported at 2015-Jul-01 22:34 UTC. Time now 2015-Jul-01 23:10 UTC.
Position N 43°26' E 004°54'.

Length 35 m; draft 5 m.

Type: Tug. MMSI: 227016900.

Date/timePositionNaut miles runAvg speedWind from/ knotsBaromVisibWave heightAir tempDewpointWater temp
2015-Jul-01 22:34N 43°26' E 004°54'0 0.0
2015-Jul-01 21:33N 43°26' E 004°54'1 1.2
2015-Jul-01 20:33N 43°25' E 004°53'0 0.4
2015-Jul-01 19:33N 43°24' E 004°53'0 0.4
2015-Jul-01 18:33N 43°25' E 004°53'1 1.2
2015-Jul-01 17:34N 43°26' E 004°54'0 0.0
2015-Jul-01 16:34N 43°26' E 004°54'0 0.0
2015-Jul-01 15:33N 43°26' E 004°54'0 0.0
2015-Jul-01 14:33N 43°26' E 004°54'0 0.0
2015-Jul-01 13:33N 43°26' E 004°54'0 0.0
2015-Jul-01 12:34N 43°26' E 004°54'0 0.0
2015-Jul-01 11:33N 43°26' E 004°54'0 0.4
2015-Jul-01 10:33N 43°26' E 004°54'2 1.9
2015-Jul-01 09:33N 43°25' E 004°51'2 2.3
2015-Jul-01 08:34N 43°26' E 004°54'0 0.0
2015-Jul-01 07:34N 43°26' E 004°54'1 0.8
2015-Jul-01 06:34N 43°25' E 004°54'1 1.1
2015-Jul-01 05:33N 43°24' E 004°55'3 2.9
2015-Jul-01 04:33N 43°24' E 004°59'0 0.0
2015-Jul-01 03:33N 43°24' E 004°59'0 0.0
2015-Jul-01 02:33N 43°24' E 004°59'0 0.0
2015-Jul-01 01:34N 43°24' E 004°59'0 0.0
2015-Jul-01 00:33N 43°24' E 004°59'0 0.0
2015-Jun-30 23:33N 43°24' E 004°59'0 0.0
2015-Jun-30 22:34N 43°24' E 004°59'0 0.5
2015-Jun-30 21:34N 43°23' E 004°59'6 6.2
2015-Jun-30 20:33N 43°25' E 004°50'6 6.4
2015-Jun-30 19:34N 43°24' E 004°59'0 0.0
2015-Jun-30 18:33N 43°24' E 004°59'0 0.0
2015-Jun-30 17:34N 43°24' E 004°59'0 0.0
2015-Jun-30 16:34N 43°24' E 004°59'0 0.0
2015-Jun-30 15:34N 43°24' E 004°59'0 0.0
2015-Jun-30 14:34N 43°24' E 004°59'0 0.0
2015-Jun-30 13:34N 43°24' E 004°59'0 0.5
2015-Jun-30 12:33N 43°24' E 004°60'5 4.6
2015-Jun-30 11:33N 43°24' E 004°53'3 2.5
2015-Jun-30 10:33N 43°24' E 004°57'2 1.7
2015-Jun-30 09:33N 43°24' E 004°59'0 0.0
2015-Jun-30 08:33N 43°24' E 004°59'0 0.0
2015-Jun-30 07:33N 43°24' E 004°59'0 0.0
2015-Jun-30 06:33N 43°24' E 004°59'0 0.0
2015-Jun-30 05:33N 43°24' E 004°59'0 0.0
2015-Jun-30 04:33N 43°24' E 004°59'0 0.0
2015-Jun-30 03:33N 43°24' E 004°59'0 0.0
2015-Jun-30 02:33N 43°24' E 004°59'0 0.0
2015-Jun-30 01:33N 43°24' E 004°59'0 0.0
2015-Jun-30 00:33N 43°24' E 004°59'0 0.0
2015-Jun-29 23:33N 43°24' E 004°59'0 0.0
2015-Jun-29 22:33N 43°24' E 004°59'0 0.0
2015-Jun-29 21:33N 43°24' E 004°59'5 4.8
2015-Jun-29 20:33N 43°25' E 004°53'1 1.1
2015-Jun-29 19:33N 43°24' E 004°54'4 4.0
2015-Jun-29 18:34N 43°24' E 004°59'5 4.8
2015-Jun-29 17:33N 43°25' E 004°53'5 4.8
2015-Jun-29 16:33N 43°24' E 004°59'0 0.0
2015-Jun-29 15:33N 43°24' E 004°59'0 0.0
2015-Jun-29 14:33N 43°24' E 004°59'0 0.0
2015-Jun-29 13:33N 43°24' E 004°59'0 0.0
2015-Jun-29 12:33N 43°24' E 004°59'1 1.1
2015-Jun-29 11:33N 43°24' E 005°01'1 1.1
2015-Jun-29 10:33N 43°24' E 004°59'0 0.0
2015-Jun-29 09:33N 43°24' E 004°59'0 0.0
2015-Jun-29 08:33N 43°24' E 004°59'0 0.0
2015-Jun-29 07:33N 43°24' E 004°59'0 0.0
2015-Jun-29 06:33N 43°24' E 004°59'0 0.0
2015-Jun-29 05:33N 43°24' E 004°59'0 0.0
2015-Jun-29 04:34N 43°24' E 004°59'4 4.0
2015-Jun-29 03:34N 43°25' E 004°54'2 1.5
2015-Jun-29 02:33N 43°24' E 004°55'3 2.7
2015-Jun-29 01:33N 43°24' E 004°59'0 0.0
2015-Jun-29 00:34N 43°24' E 004°59'0 0.0
2015-Jun-28 23:33N 43°24' E 004°59'0 0.0
2015-Jun-28 22:33N 43°24' E 004°59'0 0.0
2015-Jun-28 21:34N 43°24' E 004°59'0 0.0
2015-Jun-28 20:33N 43°24' E 004°59'0 0.0
2015-Jun-28 19:33N 43°24' E 004°59'0 0.0
2015-Jun-28 18:33N 43°24' E 004°59'0 0.0
2015-Jun-28 17:33N 43°24' E 004°59'5 5.2
2015-Jun-28 16:33N 43°24' E 004°52'5 4.5
2015-Jun-28 15:33N 43°23' E 004°58'1 0.8
2015-Jun-28 14:33N 43°24' E 004°59'0 0.0
2015-Jun-28 13:33N 43°24' E 004°59'0 0.0
2015-Jun-28 12:33N 43°24' E 004°59'0 0.0
2015-Jun-28 11:33N 43°24' E 004°59'0 0.0
2015-Jun-28 10:33N 43°24' E 004°59'0 0.0
2015-Jun-28 09:33N 43°24' E 004°59'0 0.0
2015-Jun-28 08:33N 43°24' E 004°59'0 0.0
2015-Jun-28 07:33N 43°24' E 004°59'0 0.0
2015-Jun-28 06:33N 43°24' E 004°59'0 0.0
2015-Jun-28 05:33N 43°24' E 004°59'4 3.8
2015-Jun-28 04:33N 43°24' E 004°54'2 1.6
2015-Jun-28 03:33N 43°24' E 004°52'5 5.3
2015-Jun-28 02:34N 43°24' E 004°59'0 0.0
2015-Jun-28 01:33N 43°24' E 004°59'0 0.0
2015-Jun-28 00:33N 43°24' E 004°59'0 0.0
2015-Jun-27 23:33N 43°24' E 004°59'0 0.0
2015-Jun-27 22:33N 43°24' E 004°59'0 0.0
2015-Jun-27 21:33N 43°24' E 004°59'0 0.0
2015-Jun-27 20:33N 43°24' E 004°59'0 0.0
2015-Jun-27 19:33N 43°24' E 004°59'0 0.0
2015-Jun-27 18:34N 43°24' E 004°59'0 0.0
2015-Jun-27 17:33N 43°24' E 004°59'0 0.0
2015-Jun-27 16:33N 43°24' E 004°59'0 0.0
2015-Jun-27 15:34N 43°24' E 004°59'0 0.0
2015-Jun-27 14:34N 43°24' E 004°59'0 0.0
2015-Jun-27 13:33N 43°24' E 004°59'0 0.0
2015-Jun-27 12:34N 43°24' E 004°59'0 0.0
2015-Jun-27 11:33N 43°24' E 004°59'4 4.4
2015-Jun-27 10:33N 43°25' E 004°53'1 0.5
2015-Jun-27 09:33N 43°25' E 004°53'5 4.8
2015-Jun-27 08:33N 43°24' E 004°59'0 0.0
2015-Jun-27 07:33N 43°24' E 004°59'0 0.0
2015-Jun-27 06:33N 43°24' E 004°59'4 4.1
2015-Jun-27 05:33N 43°26' E 004°54'0 0.0
2015-Jun-27 04:33N 43°26' E 004°54'0 0.0
2015-Jun-27 03:33N 43°26' E 004°54'0 0.0
2015-Jun-27 02:33N 43°26' E 004°54'0 0.0
2015-Jun-27 01:33N 43°26' E 004°54'0 0.0
2015-Jun-27 00:34N 43°26' E 004°54'2 1.9
2015-Jun-26 23:33N 43°26' E 004°52'2 1.7
2015-Jun-26 22:33N 43°25' E 004°53'1 0.7
2015-Jun-26 21:33N 43°26' E 004°54'0 0.0
2015-Jun-26 20:33N 43°26' E 004°54'0 0.0
2015-Jun-26 19:33N 43°26' E 004°54'0 0.0
2015-Jun-26 18:33N 43°26' E 004°54'0 0.0
2015-Jun-26 17:33N 43°26' E 004°54'0 0.0
2015-Jun-26 16:33N 43°26' E 004°54'0 0.0
2015-Jun-26 15:33N 43°26' E 004°54'0 0.0
2015-Jun-26 14:33N 43°26' E 004°54'0 0.0
2015-Jun-26 13:33N 43°26' E 004°54'0 0.0
2015-Jun-26 12:33N 43°26' E 004°54'0 0.1
2015-Jun-26 11:33N 43°26' E 004°54'0 0.1
2015-Jun-26 10:33N 43°26' E 004°54'0 0.0
2015-Jun-26 09:33N 43°26' E 004°54'0 0.0
2015-Jun-26 08:33N 43°26' E 004°54'0 0.0
2015-Jun-26 07:33N 43°26' E 004°54'0 0.0
2015-Jun-26 06:33N 43°26' E 004°54'0 0.0
2015-Jun-26 05:33N 43°26' E 004°54'0 0.0
2015-Jun-26 04:33N 43°26' E 004°54'0 0.0
2015-Jun-26 03:33N 43°26' E 004°54'0 0.0
2015-Jun-26 02:33N 43°26' E 004°54'0 0.0
2015-Jun-26 01:33N 43°26' E 004°54'0 0.0
2015-Jun-26 00:33N 43°26' E 004°54'0 0.0
2015-Jun-25 23:33N 43°26' E 004°54'0 0.0
2015-Jun-25 22:34N 43°26' E 004°54'2 2.2
2015-Jun-25 21:33N 43°27' E 004°51'2 2.5
2015-Jun-25 20:33N 43°25' E 004°53'1 1.1
2015-Jun-25 19:33N 43°26' E 004°54'0 0.0
2015-Jun-25 18:33N 43°26' E 004°54'0 0.0
2015-Jun-25 17:33N 43°26' E 004°54'0 0.0
2015-Jun-25 16:33N 43°26' E 004°54'0 0.0
2015-Jun-25 15:33N 43°26' E 004°54'0 0.0
2015-Jun-25 14:34N 43°26' E 004°54'0 0.0
2015-Jun-25 13:33N 43°26' E 004°54'0 0.0
2015-Jun-25 12:33N 43°26' E 004°54'0 0.0
2015-Jun-25 11:33N 43°26' E 004°54'0 0.0
2015-Jun-25 10:33N 43°26' E 004°54'2 1.7
2015-Jun-25 09:34N 43°24' E 004°53'1 0.7
2015-Jun-25 08:34N 43°25' E 004°53'1 1.1
2015-Jun-25 07:33N 43°26' E 004°54'0 0.0
2015-Jun-25 06:33N 43°26' E 004°54'0 0.0
2015-Jun-25 05:33N 43°26' E 004°54'0 0.0
2015-Jun-25 04:33N 43°26' E 004°54'0 0.0
2015-Jun-25 03:33N 43°26' E 004°54'0 0.0
2015-Jun-25 02:33N 43°26' E 004°54'0 0.0
2015-Jun-25 01:33N 43°26' E 004°54'1 1.2
2015-Jun-25 00:33N 43°24' E 004°54'1 1.2
2015-Jun-24 23:33N 43°26' E 004°54'0 0.0
2015-Jun-24 22:33N 43°26' E 004°54'0 0.0
2015-Jun-24 21:33N 43°26' E 004°54'1 0.9
2015-Jun-24 20:33N 43°25' E 004°53'1 0.9
2015-Jun-24 19:33N 43°26' E 004°54'0 0.0
2015-Jun-24 18:33N 43°26' E 004°54'0 0.0
2015-Jun-24 17:33N 43°26' E 004°54'0 0.0
2015-Jun-24 16:33N 43°26' E 004°54'3 2.8
2015-Jun-24 15:33N 43°25' E 004°50'3 2.8
2015-Jun-24 14:33N 43°26' E 004°54'2 2.5
2015-Jun-24 13:33N 43°24' E 004°51'1 1.3
2015-Jun-24 12:33N 43°24' E 004°53'1 1.3
2015-Jun-24 11:33N 43°26' E 004°54'1 0.9
2015-Jun-24 10:33N 43°25' E 004°54'1 0.9
2015-Jun-24 09:33N 43°26' E 004°54'0 0.0
2015-Jun-24 08:33N 43°26' E 004°54'0 0.0
2015-Jun-24 07:34N 43°26' E 004°54'0 0.0
2015-Jun-24 06:33N 43°26' E 004°54'0 0.0
2015-Jun-24 05:34N 43°26' E 004°54'0 0.0
2015-Jun-24 04:34N 43°26' E 004°54'3 2.8
2015-Jun-24 03:34N 43°25' E 004°50'2 2.3
2015-Jun-24 02:34N 43°25' E 004°53'1 0.5
2015-Jun-24 01:34N 43°26' E 004°54'0 0.0
2015-Jun-24 00:34N 43°26' E 004°54'0 0.0
2015-Jun-23 23:34N 43°26' E 004°54'0 0.0
2015-Jun-23 22:33N 43°26' E 004°54'0 0.0
2015-Jun-23 21:34N 43°26' E 004°54'0 0.0
2015-Jun-23 20:33N 43°26' E 004°54'0 0.0
2015-Jun-23 19:34N 43°26' E 004°54'0 0.0
2015-Jun-23 19:06N 43°26' E 004°54'0 0.0
2015-Jun-22 19:34N 43°26' E 004°54'0 0.0
2015-Jun-22 18:33N 43°26' E 004°54'0 0.0
2015-Jun-22 17:34N 43°26' E 004°54'0 0.0
2015-Jun-22 16:34N 43°26' E 004°54'3 3.2
2015-Jun-22 15:34N 43°24' E 004°57'2 1.9
2015-Jun-22 14:33N 43°24' E 004°60'3 2.9
2015-Jun-22 13:34N 43°24' E 004°56'2 2.3
2015-Jun-22 12:34N 43°26' E 004°54'0 0.0
2015-Jun-22 11:34N 43°26' E 004°54'0 0.0
2015-Jun-22 10:33N 43°26' E 004°54'0 0.0
2015-Jun-22 09:33N 43°26' E 004°54'0 0.0
2015-Jun-22 08:33N 43°26' E 004°54'0 0.0
2015-Jun-22 07:34N 43°26' E 004°54'1 1.5
2015-Jun-22 06:34N 43°24' E 004°53'1 0.6
2015-Jun-22 05:34N 43°25' E 004°53'0 0.5
2015-Jun-22 04:34N 43°24' E 004°53'1 1.3
2015-Jun-22 03:34N 43°26' E 004°54'0 0.0
2015-Jun-22 02:34N 43°26' E 004°54'0 0.0
2015-Jun-22 01:34N 43°26' E 004°54'1 1.2
2015-Jun-22 00:33N 43°25' E 004°53'0 0.1
2015-Jun-21 23:34N 43°25' E 004°53'  

Dump ship's entire track history